createdAt,value
2022-12-26T00:02:23.766Z,11.73
2022-12-26T00:07:25.327Z,12.10
2022-12-26T00:12:26.808Z,12.18
2022-12-26T00:17:28.291Z,13.05
2022-12-26T00:22:29.782Z,12.45
2022-12-26T00:27:31.256Z,14.13
2022-12-26T00:32:32.754Z,12.75
2022-12-26T00:37:34.253Z,13.95
2022-12-26T00:42:35.864Z,15.45
2022-12-26T00:47:37.370Z,12.52
2022-12-26T00:52:38.882Z,11.93
2022-12-26T00:57:40.415Z,13.00
2022-12-26T01:02:42.050Z,12.52
2022-12-26T01:08:20.509Z,12.43
2022-12-26T01:13:05.039Z,13.40
2022-12-26T01:18:06.730Z,13.02
2022-12-26T01:23:08.196Z,11.93
2022-12-26T01:28:09.689Z,10.18
2022-12-26T01:33:11.180Z,10.57
2022-12-26T01:38:12.730Z,11.93
2022-12-26T01:43:14.962Z,12.57
2022-12-26T01:48:25.232Z,11.75
2022-12-26T01:53:32.454Z,13.98
2022-12-26T01:58:35.861Z,11.07
2022-12-26T02:03:56.293Z,10.88
2022-12-26T02:08:57.781Z,10.60
2022-12-26T02:13:59.261Z,10.30
2022-12-26T02:19:00.779Z,9.95
2022-12-26T02:24:18.159Z,12.13
2022-12-26T02:29:52.086Z,12.80
2022-12-26T02:35:22.436Z,12.00
2022-12-26T02:40:46.464Z,11.52
2022-12-26T02:46:18.564Z,9.82
2022-12-26T02:51:49.473Z,9.90
2022-12-26T02:57:11.116Z,10.18
2022-12-26T03:02:41.268Z,11.30
2022-12-26T03:08:01.259Z,10.38
2022-12-26T03:13:12.265Z,10.65
2022-12-26T03:18:13.747Z,9.70
2022-12-26T03:23:16.150Z,11.38
2022-12-26T03:28:17.630Z,10.15
2022-12-26T03:33:45.807Z,9.98
2022-12-26T03:39:07.517Z,8.95
2022-12-26T03:44:36.780Z,11.23
2022-12-26T03:50:02.661Z,9.25
2022-12-26T03:55:44.912Z,9.30
2022-12-26T04:01:05.072Z,9.05
2022-12-26T04:06:24.952Z,7.68
2022-12-26T04:11:46.675Z,8.07
2022-12-26T04:17:37.825Z,6.43
2022-12-26T04:23:11.047Z,5.72
2022-12-26T04:28:30.956Z,5.70
2022-12-26T04:33:54.667Z,6.43
2022-12-26T04:39:18.975Z,6.22
2022-12-26T04:44:23.146Z,7.20
2022-12-26T04:49:42.996Z,7.80
2022-12-26T04:54:44.470Z,7.10
2022-12-26T04:59:45.946Z,8.80
2022-12-26T05:05:06.198Z,8.40
2022-12-26T05:10:08.704Z,8.15
2022-12-26T05:15:10.445Z,8.50
2022-12-26T05:20:31.097Z,7.57
2022-12-26T05:25:53.543Z,7.55
2022-12-26T05:30:55.116Z,7.68
2022-12-26T05:35:56.607Z,6.80
2022-12-26T05:40:58.062Z,7.53
2022-12-26T05:45:59.535Z,6.63
2022-12-26T05:51:01.447Z,7.35
2022-12-26T05:56:06.789Z,8.65
2022-12-26T06:01:15.984Z,7.70
2022-12-26T06:06:18.593Z,6.80
2022-12-26T06:11:21.078Z,7.20
2022-12-26T06:16:22.717Z,7.68
2022-12-26T06:21:24.320Z,7.65
2022-12-26T06:26:25.795Z,7.13
2022-12-26T06:31:27.270Z,7.70
2022-12-26T06:36:29.142Z,8.25
2022-12-26T06:41:30.615Z,9.20
2022-12-26T06:46:32.183Z,9.15
2022-12-26T06:51:33.666Z,9.18
2022-12-26T06:56:35.403Z,8.90
2022-12-26T07:01:37.094Z,10.98
2022-12-26T07:06:38.843Z,10.23
2022-12-26T07:11:41.789Z,9.85
2022-12-26T07:21:44.992Z,10.75
2022-12-26T07:26:47.509Z,11.07
2022-12-26T07:31:49.047Z,10.98
2022-12-26T07:36:50.526Z,10.43
2022-12-26T07:41:57.741Z,10.55
2022-12-26T07:46:59.497Z,9.93
2022-12-26T07:52:01.793Z,9.85
2022-12-26T07:57:38.205Z,9.75
2022-12-26T08:02:24.900Z,9.40
2022-12-26T08:07:26.476Z,8.43
2022-12-26T08:12:27.953Z,10.23
2022-12-26T08:17:31.374Z,9.55
2022-12-26T08:22:32.907Z,9.23
2022-12-26T08:27:34.373Z,9.77
2022-12-26T08:32:37.255Z,8.73
2022-12-26T08:37:40.978Z,9.57
2022-12-26T08:43:03.022Z,9.40
2022-12-26T08:48:04.340Z,9.93
2022-12-26T08:53:05.977Z,9.75
2022-12-26T08:58:07.497Z,11.75
2022-12-26T09:03:09.036Z,10.40
2022-12-26T09:08:10.612Z,9.38
2022-12-26T09:13:12.089Z,9.98
2022-12-26T09:18:13.553Z,9.75
2022-12-26T09:23:15.420Z,9.55
2022-12-26T09:28:17.772Z,9.80
2022-12-26T09:33:19.287Z,8.43
2022-12-26T09:38:20.757Z,7.60
2022-12-26T09:43:49.915Z,6.53
2022-12-26T09:48:56.543Z,6.80
2022-12-26T09:53:58.018Z,5.97
2022-12-26T09:59:06.376Z,6.40
2022-12-26T10:04:13.378Z,6.30
2022-12-26T10:09:44.943Z,6.13
2022-12-26T10:15:00.098Z,4.70
2022-12-26T10:20:19.765Z,5.28
2022-12-26T10:25:30.344Z,4.70
2022-12-26T10:30:37.722Z,4.95
2022-12-26T10:35:41.937Z,4.75
2022-12-26T10:40:44.729Z,4.30
2022-12-26T10:45:58.296Z,4.70
2022-12-26T10:50:59.794Z,4.78
2022-12-26T10:56:01.255Z,3.78
2022-12-26T11:01:27.272Z,3.28
2022-12-26T11:06:36.828Z,2.95
2022-12-26T11:11:46.926Z,3.85
2022-12-26T11:16:48.376Z,4.75
2022-12-26T11:21:49.837Z,3.80
2022-12-26T11:26:51.333Z,3.50
2022-12-26T11:32:00.167Z,5.18
2022-12-26T11:37:01.661Z,5.40
2022-12-26T11:42:12.825Z,4.75
2022-12-26T11:47:17.651Z,3.55
2022-12-26T11:52:42.057Z,3.05
2022-12-26T11:57:43.525Z,3.40
2022-12-26T12:02:45.225Z,2.75
2022-12-26T12:08:18.742Z,3.50
2022-12-26T12:13:29.145Z,2.50
2022-12-26T12:18:46.415Z,2.15
2022-12-26T12:24:19.173Z,2.03
2022-12-26T12:29:54.787Z,2.63
2022-12-26T12:35:23.641Z,2.15
2022-12-26T12:40:30.887Z,1.90
2022-12-26T12:45:43.726Z,1.83
2022-12-26T12:50:56.928Z,2.40
2022-12-26T12:56:07.666Z,2.17
2022-12-26T13:01:24.459Z,2.53
2022-12-26T13:06:30.539Z,1.83
2022-12-26T13:11:35.290Z,2.13
2022-12-26T13:16:43.407Z,3.42
2022-12-26T13:21:45.044Z,1.73
2022-12-26T13:27:09.935Z,2.20
2022-12-26T13:32:26.258Z,1.60
2022-12-26T13:37:39.513Z,2.45
2022-12-26T13:43:13.599Z,2.50
2022-12-26T13:48:17.653Z,2.50
2022-12-26T13:53:25.176Z,1.75
2022-12-26T13:58:44.520Z,2.10
2022-12-26T14:04:04.641Z,1.88
2022-12-26T14:09:12.468Z,3.22
2022-12-26T14:14:30.089Z,2.85
2022-12-26T14:19:56.859Z,2.40
2022-12-26T14:25:22.608Z,2.08
2022-12-26T14:30:36.456Z,2.92
2022-12-26T14:35:53.353Z,1.92
2022-12-26T14:41:04.076Z,2.65
2022-12-26T14:46:31.408Z,2.22
2022-12-26T14:51:34.163Z,1.88
2022-12-26T14:56:37.283Z,1.73
2022-12-26T15:01:38.661Z,1.70
2022-12-26T15:07:04.644Z,2.22
2022-12-26T15:12:17.887Z,1.50
2022-12-26T15:17:40.951Z,2.00
2022-12-26T15:22:50.170Z,2.30
2022-12-26T15:27:57.459Z,1.98
2022-12-26T15:33:02.876Z,2.30
2022-12-26T15:38:33.033Z,1.67
2022-12-26T15:44:13.028Z,1.90
2022-12-26T15:49:26.999Z,3.25
2022-12-26T15:54:58.670Z,1.90
2022-12-26T16:00:14.543Z,2.00
2022-12-26T16:05:31.573Z,2.15
2022-12-26T16:10:34.335Z,2.78
2022-12-26T16:15:46.223Z,3.03
2022-12-26T16:21:07.027Z,3.75
2022-12-26T16:26:16.274Z,3.20
2022-12-26T16:31:21.851Z,3.35
2022-12-26T16:36:27.603Z,1.50
2022-12-26T16:41:30.588Z,1.73
2022-12-26T16:46:32.405Z,1.85
2022-12-26T16:51:38.694Z,1.65
2022-12-26T16:56:40.163Z,2.28
2022-12-26T17:01:41.717Z,1.88
2022-12-26T17:07:11.750Z,1.67
2022-12-26T17:12:28.928Z,2.05
2022-12-26T17:17:31.836Z,2.42
2022-12-26T17:22:34.303Z,1.90
2022-12-26T17:27:35.862Z,1.50
2022-12-26T17:32:40.003Z,1.85
2022-12-26T17:37:41.730Z,1.83
2022-12-26T17:42:50.232Z,2.63
2022-12-26T17:47:54.972Z,1.45
2022-12-26T17:53:06.736Z,0.98
2022-12-26T17:58:11.835Z,1.27
2022-12-26T18:03:13.512Z,1.83
2022-12-26T18:08:29.926Z,1.50
2022-12-26T18:13:31.409Z,1.77
2022-12-26T18:18:37.374Z,1.63
2022-12-26T18:23:38.967Z,2.00
2022-12-26T18:28:41.556Z,2.25
2022-12-26T18:33:43.026Z,1.73
2022-12-26T18:38:44.541Z,1.60
2022-12-26T18:43:46.333Z,1.50
2022-12-26T18:48:47.919Z,2.50
2022-12-26T18:53:49.405Z,1.98
2022-12-26T18:58:55.756Z,1.80
2022-12-26T19:03:59.443Z,2.20
2022-12-26T19:09:01.152Z,1.95
2022-12-26T19:14:03.821Z,2.80
2022-12-26T19:19:05.370Z,1.60
2022-12-26T19:24:07.081Z,1.70
2022-12-26T19:29:08.865Z,1.90
2022-12-26T19:34:10.347Z,1.90
2022-12-26T19:39:11.823Z,1.73
2022-12-26T19:44:13.280Z,1.52
2022-12-26T19:49:14.816Z,1.38
2022-12-26T19:54:16.318Z,1.27
2022-12-26T19:59:17.877Z,1.58
2022-12-26T20:04:19.336Z,2.13
2022-12-26T20:09:20.793Z,2.08
2022-12-26T20:14:23.662Z,1.48
2022-12-26T20:19:25.293Z,1.65
2022-12-26T20:24:26.775Z,2.03
2022-12-26T20:29:28.281Z,2.05
2022-12-26T20:34:30.101Z,1.63
2022-12-26T20:39:32.036Z,1.75
2022-12-26T20:44:33.909Z,1.20
2022-12-26T20:49:35.594Z,2.00
2022-12-26T20:54:37.135Z,2.53
2022-12-26T20:59:38.610Z,1.98
2022-12-26T21:04:40.601Z,2.20
2022-12-26T21:09:46.271Z,2.50
2022-12-26T21:14:48.284Z,3.05
2022-12-26T21:19:49.790Z,3.75
2022-12-26T21:24:51.261Z,3.10
2022-12-26T21:29:52.738Z,4.07
2022-12-26T21:34:54.192Z,2.10
2022-12-26T21:39:55.664Z,3.58
2022-12-26T21:44:57.173Z,2.28
2022-12-26T21:49:58.637Z,2.60
2022-12-26T21:55:18.756Z,2.05
2022-12-26T22:00:20.307Z,3.05
2022-12-26T22:05:26.075Z,2.67
2022-12-26T22:10:50.728Z,3.58
2022-12-26T22:16:03.169Z,1.58
2022-12-26T22:21:06.642Z,1.20
2022-12-26T22:26:08.653Z,1.63
2022-12-26T22:31:23.119Z,2.50
2022-12-26T22:36:24.697Z,1.70
2022-12-26T22:41:26.541Z,2.30
2022-12-26T22:46:28.049Z,2.13
2022-12-26T22:51:29.564Z,2.47
2022-12-26T22:56:31.023Z,1.75
2022-12-26T23:01:32.594Z,3.00
2022-12-26T23:06:35.218Z,3.25
2022-12-26T23:11:36.830Z,1.70
2022-12-26T23:16:47.531Z,2.47
2022-12-26T23:21:50.410Z,2.83
2022-12-26T23:26:53.656Z,1.90
2022-12-26T23:36:56.464Z,2.60
2022-12-26T23:41:57.931Z,1.83
2022-12-26T23:46:59.438Z,2.22
2022-12-26T23:52:00.993Z,1.75
2022-12-26T23:57:02.462Z,1.90
